Betania — EA5995 — position and weather

sailwx.info

Track history (hours):
 
Tides and Currents Weather Stations Pressure Air Temp Water Temp Dewpoint Dewpoint Depression Visibility Wind Speed Wind Dir Waves Ship Positions

Betania

Last reported at 2018-Jan-19 05:30 UTC. Time now 2018-Jan-19 05:44 UTC.
Position N 28°30' W 016°12'.

Length 17 m; draft 3 m.

Type: Fishing. MMSI: 224069860.

Date/timePositionNaut miles runAvg speedWind from/ knotsBaromVisibWave heightAir tempDewpointWater temp
2018-Jan-19 05:30N 28°30' W 016°12'0 0.0
2018-Jan-19 05:01N 28°30' W 016°12'0 0.0
2018-Jan-19 04:30N 28°30' W 016°12'0 0.0
2018-Jan-19 04:01N 28°30' W 016°12'0 0.0
2018-Jan-19 03:30N 28°30' W 016°12'0 0.0
2018-Jan-19 03:00N 28°30' W 016°12'0 0.0
2018-Jan-19 02:30N 28°30' W 016°12'0 0.0
2018-Jan-19 02:01N 28°30' W 016°12'0 0.0
2018-Jan-19 01:31N 28°30' W 016°12'0 0.0
2018-Jan-19 01:01N 28°30' W 016°12'0 0.0
2018-Jan-19 00:30N 28°30' W 016°12'0 0.0
2018-Jan-19 00:00N 28°30' W 016°12'0 0.0
2018-Jan-18 23:30N 28°30' W 016°12'0 0.0
2018-Jan-18 23:00N 28°30' W 016°12'0 0.0
2018-Jan-18 22:30N 28°30' W 016°12'0 0.0
2018-Jan-18 22:01N 28°30' W 016°12'0 0.0
2018-Jan-18 21:30N 28°30' W 016°12'0 0.0
2018-Jan-18 21:00N 28°30' W 016°12'0 0.0
2018-Jan-18 20:31N 28°30' W 016°12'0 0.0
2018-Jan-18 20:00N 28°30' W 016°12'0 0.0
2018-Jan-18 19:31N 28°30' W 016°12'0 0.0
2018-Jan-18 18:59N 28°30' W 016°12'0 0.0
2018-Jan-18 18:31N 28°30' W 016°12'0 0.0
2018-Jan-18 18:00N 28°30' W 016°12'0 0.0
2018-Jan-18 17:30N 28°30' W 016°12'0 0.0
2018-Jan-18 17:00N 28°30' W 016°12'0 0.0
2018-Jan-18 16:30N 28°30' W 016°12'0 0.0
2018-Jan-18 16:00N 28°30' W 016°12'0 0.0
2018-Jan-18 15:31N 28°30' W 016°12'0 0.0
2018-Jan-18 15:00N 28°30' W 016°12'0 0.0
2018-Jan-18 14:30N 28°30' W 016°12'0 0.0
2018-Jan-18 14:01N 28°30' W 016°12'0 0.0
2018-Jan-18 13:30N 28°30' W 016°12'0 0.0
2018-Jan-18 13:00N 28°30' W 016°12'0 0.0
2018-Jan-18 12:30N 28°30' W 016°12'0 0.0
2018-Jan-18 12:00N 28°30' W 016°12'0 0.0
2018-Jan-18 11:30N 28°30' W 016°12'0 0.0
2018-Jan-18 11:00N 28°30' W 016°12'0 0.0
2018-Jan-18 10:31N 28°30' W 016°12'0 0.0
2018-Jan-18 10:00N 28°30' W 016°12'0 0.0
2018-Jan-18 09:30N 28°30' W 016°12'0 0.0
2018-Jan-18 09:00N 28°30' W 016°12'0 0.0
2018-Jan-18 08:30N 28°30' W 016°12'0 0.0
2018-Jan-18 08:00N 28°30' W 016°12'0 0.0
2018-Jan-18 07:30N 28°30' W 016°12'0 0.0
2018-Jan-18 07:01N 28°30' W 016°12'0 0.0
2018-Jan-18 06:31N 28°30' W 016°12'0 0.0
2018-Jan-18 06:01N 28°30' W 016°12'0 0.0
2018-Jan-18 05:31N 28°30' W 016°12'0 0.0
2018-Jan-18 05:00N 28°30' W 016°12'0 0.0
2018-Jan-18 04:31N 28°30' W 016°12'0 0.0
2018-Jan-18 04:01N 28°30' W 016°12'0 0.0
2018-Jan-18 03:30N 28°30' W 016°12'0 0.0
2018-Jan-18 03:01N 28°30' W 016°12'0 0.0
2018-Jan-18 02:30N 28°30' W 016°12'0 0.0
2018-Jan-18 02:00N 28°30' W 016°12'0 0.0
2018-Jan-18 01:30N 28°30' W 016°12'0 0.0
2018-Jan-18 01:00N 28°30' W 016°12'0 0.0
2018-Jan-18 00:00N 28°30' W 016°12'0 0.0
2018-Jan-17 23:58N 28°30' W 016°12'  
2018-Jan-12 12:49N 28°19' W 015°49'3 8.2
2018-Jan-12 12:25N 28°22' W 015°48'4 8.1
2018-Jan-12 11:59N 28°25' W 015°46'16 3.5
2018-Jan-12 07:32N 28°31' W 016°02'0 7.1
2018-Jan-12 07:30N 28°31' W 016°02'3 6.4
2018-Jan-12 07:00N 28°30' W 016°06'3 5.9
2018-Jan-12 06:30N 28°30' W 016°09'3 5.5
2018-Jan-12 06:00N 28°29' W 016°12'1 1.2
2018-Jan-12 05:30N 28°30' W 016°12'0 0.0
2018-Jan-12 05:00N 28°30' W 016°12'0 0.0
2018-Jan-12 04:30N 28°30' W 016°12'0 0.0
2018-Jan-12 04:00N 28°30' W 016°12'0 0.0
2018-Jan-12 03:30N 28°30' W 016°12'0 0.0
2018-Jan-12 03:00N 28°30' W 016°12'0 0.0
2018-Jan-12 02:30N 28°30' W 016°12'0 0.0
2018-Jan-12 02:00N 28°30' W 016°12'0 0.0
2018-Jan-12 01:30N 28°30' W 016°12'0 0.0
2018-Jan-12 01:00N 28°30' W 016°12'0 0.0
2018-Jan-12 00:30N 28°30' W 016°12'0 0.0
2018-Jan-12 00:00N 28°30' W 016°12'0 0.0
2018-Jan-11 23:30N 28°30' W 016°12'0 0.0
2018-Jan-11 23:00N 28°30' W 016°12'0 0.0
2018-Jan-11 22:30N 28°30' W 016°12'0 0.0
2018-Jan-11 22:00N 28°30' W 016°12'0 0.0
2018-Jan-11 21:30N 28°30' W 016°12'0 0.0
2018-Jan-11 21:00N 28°30' W 016°12'0 0.0
2018-Jan-11 20:30N 28°30' W 016°12'0 0.0
2018-Jan-11 20:00N 28°30' W 016°12'0 0.0
2018-Jan-11 19:30N 28°30' W 016°12'0 0.0
2018-Jan-11 19:00N 28°30' W 016°12'0 0.0
2018-Jan-11 18:30N 28°30' W 016°12'0 0.0
2018-Jan-11 18:00N 28°30' W 016°12'0 0.0
2018-Jan-11 17:30N 28°30' W 016°12'0 0.0
2018-Jan-11 17:00N 28°30' W 016°12'0 0.0
2018-Jan-11 16:30N 28°30' W 016°12'0 0.0
2018-Jan-11 16:00N 28°30' W 016°12'0 0.0
2018-Jan-11 15:30N 28°30' W 016°12'0 0.0
2018-Jan-11 15:00N 28°30' W 016°12'1 1.3
2018-Jan-11 14:30N 28°29' W 016°12'0 0.5
2018-Jan-11 14:00N 28°29' W 016°12'1 1.7
2018-Jan-11 13:30N 28°30' W 016°12'0 0.0
2018-Jan-11 13:00N 28°30' W 016°12'0 0.0
2018-Jan-11 12:31N 28°30' W 016°12'0 0.0
2018-Jan-11 12:00N 28°30' W 016°12'0 0.0
2018-Jan-11 11:30N 28°30' W 016°12'0 0.0
2018-Jan-11 11:00N 28°30' W 016°12'0 0.0
2018-Jan-11 10:30N 28°30' W 016°12'0 0.0
2018-Jan-11 10:00N 28°30' W 016°12'0 0.0
2018-Jan-11 09:30N 28°30' W 016°12'0 0.0
2018-Jan-11 09:00N 28°30' W 016°12'0 0.0
2018-Jan-11 08:30N 28°30' W 016°12'0 0.0
2018-Jan-11 08:00N 28°30' W 016°12'0 0.0
2018-Jan-11 07:30N 28°30' W 016°12'0 0.0
2018-Jan-11 07:00N 28°30' W 016°12'0 0.0
2018-Jan-11 06:30N 28°30' W 016°12'0 0.0
2018-Jan-11 06:00N 28°30' W 016°12'0 0.0
2018-Jan-11 05:30N 28°30' W 016°12'0 0.0
2018-Jan-11 04:59N 28°30' W 016°12'0 0.0
2018-Jan-11 04:30N 28°30' W 016°12'0 0.0
2018-Jan-11 04:00N 28°30' W 016°12'0 0.0
2018-Jan-11 03:30N 28°30' W 016°12'0 0.0
2018-Jan-11 03:00N 28°30' W 016°12'0 0.0
2018-Jan-11 02:30N 28°30' W 016°12'0 0.0
2018-Jan-11 02:00N 28°30' W 016°12'0 0.0
2018-Jan-11 01:30N 28°30' W 016°12'0 0.0
2018-Jan-11 01:00N 28°30' W 016°12'0 0.0
2018-Jan-11 00:30N 28°30' W 016°12'0 0.0
2018-Jan-11 00:00N 28°30' W 016°12'0 0.0
2018-Jan-10 23:30N 28°30' W 016°12'0 0.0
2018-Jan-10 23:00N 28°30' W 016°12'0 0.0
2018-Jan-10 22:30N 28°30' W 016°12'0 0.0
2018-Jan-10 22:00N 28°30' W 016°12'0 0.0
2018-Jan-10 21:28N 28°30' W 016°12'0 0.0
2018-Jan-10 21:00N 28°30' W 016°12'0 0.0
2018-Jan-10 20:30N 28°30' W 016°12'0 0.0
2018-Jan-10 20:00N 28°30' W 016°12'0 0.0
2018-Jan-10 19:30N 28°30' W 016°12'0 0.0
2018-Jan-10 19:00N 28°30' W 016°12'0 0.0
2018-Jan-10 18:30N 28°30' W 016°12'0 0.0
2018-Jan-10 18:00N 28°30' W 016°12'0 0.0
2018-Jan-10 17:30N 28°30' W 016°12'0 0.0
2018-Jan-10 17:00N 28°30' W 016°12'0 0.0
2018-Jan-10 16:30N 28°30' W 016°12'0 0.0
2018-Jan-10 16:00N 28°30' W 016°12'0 0.0
2018-Jan-10 15:30N 28°30' W 016°12'0 0.0
2018-Jan-10 15:00N 28°30' W 016°12'0 0.0
2018-Jan-10 14:30N 28°30' W 016°12'0 0.0
2018-Jan-10 14:00N 28°30' W 016°12'0 0.0
2018-Jan-10 13:30N 28°30' W 016°12'0 0.0
2018-Jan-10 13:00N 28°30' W 016°12'0 0.0
2018-Jan-10 12:30N 28°30' W 016°12'  
Track history (hours):
 
Tides and Currents Weather Stations Pressure Air Temp Water Temp Dewpoint Dewpoint Depression Visibility Wind Speed Wind Dir Waves Ship Positions

Betania

Last reported at 2018-Jan-19 05:30 UTC. Time now 2018-Jan-19 05:44 UTC.
Position N 28°30' W 016°12'.

Length 17 m; draft 3 m.

Type: Fishing. MMSI: 224069860.

Date/timePositionNaut miles runAvg speedWind from/ knotsBaromVisibWave heightAir tempDewpointWater temp
2018-Jan-19 05:30N 28°30' W 016°12'0 0.0
2018-Jan-19 05:01N 28°30' W 016°12'0 0.0
2018-Jan-19 04:30N 28°30' W 016°12'0 0.0
2018-Jan-19 04:01N 28°30' W 016°12'0 0.0
2018-Jan-19 03:30N 28°30' W 016°12'0 0.0
2018-Jan-19 03:00N 28°30' W 016°12'0 0.0
2018-Jan-19 02:30N 28°30' W 016°12'0 0.0
2018-Jan-19 02:01N 28°30' W 016°12'0 0.0
2018-Jan-19 01:31N 28°30' W 016°12'0 0.0
2018-Jan-19 01:01N 28°30' W 016°12'0 0.0
2018-Jan-19 00:30N 28°30' W 016°12'0 0.0
2018-Jan-19 00:00N 28°30' W 016°12'0 0.0
2018-Jan-18 23:30N 28°30' W 016°12'0 0.0
2018-Jan-18 23:00N 28°30' W 016°12'0 0.0
2018-Jan-18 22:30N 28°30' W 016°12'0 0.0
2018-Jan-18 22:01N 28°30' W 016°12'0 0.0
2018-Jan-18 21:30N 28°30' W 016°12'0 0.0
2018-Jan-18 21:00N 28°30' W 016°12'0 0.0
2018-Jan-18 20:31N 28°30' W 016°12'0 0.0
2018-Jan-18 20:00N 28°30' W 016°12'0 0.0
2018-Jan-18 19:31N 28°30' W 016°12'0 0.0
2018-Jan-18 18:59N 28°30' W 016°12'0 0.0
2018-Jan-18 18:31N 28°30' W 016°12'0 0.0
2018-Jan-18 18:00N 28°30' W 016°12'0 0.0
2018-Jan-18 17:30N 28°30' W 016°12'0 0.0
2018-Jan-18 17:00N 28°30' W 016°12'0 0.0
2018-Jan-18 16:30N 28°30' W 016°12'0 0.0
2018-Jan-18 16:00N 28°30' W 016°12'0 0.0
2018-Jan-18 15:31N 28°30' W 016°12'0 0.0
2018-Jan-18 15:00N 28°30' W 016°12'0 0.0
2018-Jan-18 14:30N 28°30' W 016°12'0 0.0
2018-Jan-18 14:01N 28°30' W 016°12'0 0.0
2018-Jan-18 13:30N 28°30' W 016°12'0 0.0
2018-Jan-18 13:00N 28°30' W 016°12'0 0.0
2018-Jan-18 12:30N 28°30' W 016°12'0 0.0
2018-Jan-18 12:00N 28°30' W 016°12'0 0.0
2018-Jan-18 11:30N 28°30' W 016°12'0 0.0
2018-Jan-18 11:00N 28°30' W 016°12'0 0.0
2018-Jan-18 10:31N 28°30' W 016°12'0 0.0
2018-Jan-18 10:00N 28°30' W 016°12'0 0.0
2018-Jan-18 09:30N 28°30' W 016°12'0 0.0
2018-Jan-18 09:00N 28°30' W 016°12'0 0.0
2018-Jan-18 08:30N 28°30' W 016°12'0 0.0
2018-Jan-18 08:00N 28°30' W 016°12'0 0.0
2018-Jan-18 07:30N 28°30' W 016°12'0 0.0
2018-Jan-18 07:01N 28°30' W 016°12'0 0.0
2018-Jan-18 06:31N 28°30' W 016°12'0 0.0
2018-Jan-18 06:01N 28°30' W 016°12'0 0.0
2018-Jan-18 05:31N 28°30' W 016°12'0 0.0
2018-Jan-18 05:00N 28°30' W 016°12'0 0.0
2018-Jan-18 04:31N 28°30' W 016°12'0 0.0
2018-Jan-18 04:01N 28°30' W 016°12'0 0.0
2018-Jan-18 03:30N 28°30' W 016°12'0 0.0
2018-Jan-18 03:01N 28°30' W 016°12'0 0.0
2018-Jan-18 02:30N 28°30' W 016°12'0 0.0
2018-Jan-18 02:00N 28°30' W 016°12'0 0.0
2018-Jan-18 01:30N 28°30' W 016°12'0 0.0
2018-Jan-18 01:00N 28°30' W 016°12'0 0.0
2018-Jan-18 00:00N 28°30' W 016°12'0 0.0
2018-Jan-17 23:58N 28°30' W 016°12'  
2018-Jan-12 12:49N 28°19' W 015°49'3 8.2
2018-Jan-12 12:25N 28°22' W 015°48'4 8.1
2018-Jan-12 11:59N 28°25' W 015°46'16 3.5
2018-Jan-12 07:32N 28°31' W 016°02'0 7.1
2018-Jan-12 07:30N 28°31' W 016°02'3 6.4
2018-Jan-12 07:00N 28°30' W 016°06'3 5.9
2018-Jan-12 06:30N 28°30' W 016°09'3 5.5
2018-Jan-12 06:00N 28°29' W 016°12'1 1.2
2018-Jan-12 05:30N 28°30' W 016°12'0 0.0
2018-Jan-12 05:00N 28°30' W 016°12'0 0.0
2018-Jan-12 04:30N 28°30' W 016°12'0 0.0
2018-Jan-12 04:00N 28°30' W 016°12'0 0.0
2018-Jan-12 03:30N 28°30' W 016°12'0 0.0
2018-Jan-12 03:00N 28°30' W 016°12'0 0.0
2018-Jan-12 02:30N 28°30' W 016°12'0 0.0
2018-Jan-12 02:00N 28°30' W 016°12'0 0.0
2018-Jan-12 01:30N 28°30' W 016°12'0 0.0
2018-Jan-12 01:00N 28°30' W 016°12'0 0.0
2018-Jan-12 00:30N 28°30' W 016°12'0 0.0
2018-Jan-12 00:00N 28°30' W 016°12'0 0.0
2018-Jan-11 23:30N 28°30' W 016°12'0 0.0
2018-Jan-11 23:00N 28°30' W 016°12'0 0.0
2018-Jan-11 22:30N 28°30' W 016°12'0 0.0
2018-Jan-11 22:00N 28°30' W 016°12'0 0.0
2018-Jan-11 21:30N 28°30' W 016°12'0 0.0
2018-Jan-11 21:00N 28°30' W 016°12'0 0.0
2018-Jan-11 20:30N 28°30' W 016°12'0 0.0
2018-Jan-11 20:00N 28°30' W 016°12'0 0.0
2018-Jan-11 19:30N 28°30' W 016°12'0 0.0
2018-Jan-11 19:00N 28°30' W 016°12'0 0.0
2018-Jan-11 18:30N 28°30' W 016°12'0 0.0
2018-Jan-11 18:00N 28°30' W 016°12'0 0.0
2018-Jan-11 17:30N 28°30' W 016°12'0 0.0
2018-Jan-11 17:00N 28°30' W 016°12'0 0.0
2018-Jan-11 16:30N 28°30' W 016°12'0 0.0
2018-Jan-11 16:00N 28°30' W 016°12'0 0.0
2018-Jan-11 15:30N 28°30' W 016°12'0 0.0
2018-Jan-11 15:00N 28°30' W 016°12'1 1.3
2018-Jan-11 14:30N 28°29' W 016°12'0 0.5
2018-Jan-11 14:00N 28°29' W 016°12'1 1.7
2018-Jan-11 13:30N 28°30' W 016°12'0 0.0
2018-Jan-11 13:00N 28°30' W 016°12'0 0.0
2018-Jan-11 12:31N 28°30' W 016°12'0 0.0
2018-Jan-11 12:00N 28°30' W 016°12'0 0.0
2018-Jan-11 11:30N 28°30' W 016°12'0 0.0
2018-Jan-11 11:00N 28°30' W 016°12'0 0.0
2018-Jan-11 10:30N 28°30' W 016°12'0 0.0
2018-Jan-11 10:00N 28°30' W 016°12'0 0.0
2018-Jan-11 09:30N 28°30' W 016°12'0 0.0
2018-Jan-11 09:00N 28°30' W 016°12'0 0.0
2018-Jan-11 08:30N 28°30' W 016°12'0 0.0
2018-Jan-11 08:00N 28°30' W 016°12'0 0.0
2018-Jan-11 07:30N 28°30' W 016°12'0 0.0
2018-Jan-11 07:00N 28°30' W 016°12'0 0.0
2018-Jan-11 06:30N 28°30' W 016°12'0 0.0
2018-Jan-11 06:00N 28°30' W 016°12'0 0.0
2018-Jan-11 05:30N 28°30' W 016°12'0 0.0
2018-Jan-11 04:59N 28°30' W 016°12'0 0.0
2018-Jan-11 04:30N 28°30' W 016°12'0 0.0
2018-Jan-11 04:00N 28°30' W 016°12'0 0.0
2018-Jan-11 03:30N 28°30' W 016°12'0 0.0
2018-Jan-11 03:00N 28°30' W 016°12'0 0.0
2018-Jan-11 02:30N 28°30' W 016°12'0 0.0
2018-Jan-11 02:00N 28°30' W 016°12'0 0.0
2018-Jan-11 01:30N 28°30' W 016°12'0 0.0
2018-Jan-11 01:00N 28°30' W 016°12'0 0.0
2018-Jan-11 00:30N 28°30' W 016°12'0 0.0
2018-Jan-11 00:00N 28°30' W 016°12'0 0.0
2018-Jan-10 23:30N 28°30' W 016°12'0 0.0
2018-Jan-10 23:00N 28°30' W 016°12'0 0.0
2018-Jan-10 22:30N 28°30' W 016°12'0 0.0
2018-Jan-10 22:00N 28°30' W 016°12'0 0.0
2018-Jan-10 21:28N 28°30' W 016°12'0 0.0
2018-Jan-10 21:00N 28°30' W 016°12'0 0.0
2018-Jan-10 20:30N 28°30' W 016°12'0 0.0
2018-Jan-10 20:00N 28°30' W 016°12'0 0.0
2018-Jan-10 19:30N 28°30' W 016°12'0 0.0
2018-Jan-10 19:00N 28°30' W 016°12'0 0.0
2018-Jan-10 18:30N 28°30' W 016°12'0 0.0
2018-Jan-10 18:00N 28°30' W 016°12'0 0.0
2018-Jan-10 17:30N 28°30' W 016°12'0 0.0
2018-Jan-10 17:00N 28°30' W 016°12'0 0.0
2018-Jan-10 16:30N 28°30' W 016°12'0 0.0
2018-Jan-10 16:00N 28°30' W 016°12'0 0.0
2018-Jan-10 15:30N 28°30' W 016°12'0 0.0
2018-Jan-10 15:00N 28°30' W 016°12'0 0.0
2018-Jan-10 14:30N 28°30' W 016°12'0 0.0
2018-Jan-10 14:00N 28°30' W 016°12'0 0.0
2018-Jan-10 13:30N 28°30' W 016°12'0 0.0
2018-Jan-10 13:00N 28°30' W 016°12'0 0.0
2018-Jan-10 12:30N 28°30' W 016°12'  

Dump ship's entire track history